sensor_id;sensor_type;location;lat;lon;timestamp;P1;durP1;ratioP1;P2;durP2;ratioP2
32639;SDS011;19049;52.524;11.468;2022-08-19T00:01:42;8.47;;;7.73;;
32639;SDS011;19049;52.524;11.468;2022-08-19T00:04:10;8.73;;;7.93;;
32639;SDS011;19049;52.524;11.468;2022-08-19T00:06:38;8.77;;;7.97;;
32639;SDS011;19049;52.524;11.468;2022-08-19T00:09:06;9.90;;;8.97;;
32639;SDS011;19049;52.524;11.468;2022-08-19T00:11:34;9.83;;;8.93;;
32639;SDS011;19049;52.524;11.468;2022-08-19T00:14:02;10.03;;;9.07;;
32639;SDS011;19049;52.524;11.468;2022-08-19T00:16:29;9.87;;;9.00;;
32639;SDS011;19049;52.524;11.468;2022-08-19T00:18:55;10.30;;;9.30;;
32639;SDS011;19049;52.524;11.468;2022-08-19T00:21:21;9.60;;;8.70;;
32639;SDS011;19049;52.524;11.468;2022-08-19T00:23:51;10.03;;;9.07;;
32639;SDS011;19049;52.524;11.468;2022-08-19T00:26:23;8.73;;;7.93;;
32639;SDS011;19049;52.524;11.468;2022-08-19T00:28:49;9.47;;;8.50;;
32639;SDS011;19049;52.524;11.468;2022-08-19T00:31:15;10.17;;;9.20;;
32639;SDS011;19049;52.524;11.468;2022-08-19T00:33:42;11.17;;;10.17;;
32639;SDS011;19049;52.524;11.468;2022-08-19T00:36:08;9.97;;;8.97;;
32639;SDS011;19049;52.524;11.468;2022-08-19T00:38:35;8.90;;;8.03;;
32639;SDS011;19049;52.524;11.468;2022-08-19T00:41:06;8.43;;;7.70;;
32639;SDS011;19049;52.524;11.468;2022-08-19T00:43:32;8.67;;;7.87;;
32639;SDS011;19049;52.524;11.468;2022-08-19T00:45:58;9.07;;;8.07;;
32639;SDS011;19049;52.524;11.468;2022-08-19T00:48:23;8.63;;;7.93;;
32639;SDS011;19049;52.524;11.468;2022-08-19T00:50:50;8.93;;;8.13;;
32639;SDS011;19049;52.524;11.468;2022-08-19T00:53:18;10.63;;;8.97;;
32639;SDS011;19049;52.524;11.468;2022-08-19T00:55:46;8.47;;;7.67;;
32639;SDS011;19049;52.524;11.468;2022-08-19T00:58:15;8.37;;;7.60;;
32639;SDS011;19049;52.524;11.468;2022-08-19T01:00:46;10.27;;;8.80;;
32639;SDS011;19049;52.524;11.468;2022-08-19T01:03:18;11.00;;;9.77;;
32639;SDS011;19049;52.524;11.468;2022-08-19T01:05:46;10.53;;;9.43;;
32639;SDS011;19049;52.524;11.468;2022-08-19T01:08:14;9.03;;;8.23;;
32639;SDS011;19049;52.524;11.468;2022-08-19T01:10:42;9.43;;;8.57;;
32639;SDS011;19049;52.524;11.468;2022-08-19T01:13:10;8.43;;;7.63;;
32639;SDS011;19049;52.524;11.468;2022-08-19T01:15:40;9.37;;;8.17;;
32639;SDS011;19049;52.524;11.468;2022-08-19T01:18:09;8.90;;;8.10;;
32639;SDS011;19049;52.524;11.468;2022-08-19T01:20:38;8.47;;;7.77;;
32639;SDS011;19049;52.524;11.468;2022-08-19T01:23:04;8.83;;;7.90;;
32639;SDS011;19049;52.524;11.468;2022-08-19T01:25:39;8.50;;;7.73;;
32639;SDS011;19049;52.524;11.468;2022-08-19T01:28:14;10.13;;;9.13;;
32639;SDS011;19049;52.524;11.468;2022-08-19T01:30:42;8.83;;;7.97;;
32639;SDS011;19049;52.524;11.468;2022-08-19T01:33:11;10.50;;;9.40;;
32639;SDS011;19049;52.524;11.468;2022-08-19T01:35:37;8.73;;;7.93;;
32639;SDS011;19049;52.524;11.468;2022-08-19T01:38:04;9.50;;;8.70;;
32639;SDS011;19049;52.524;11.468;2022-08-19T01:40:32;9.33;;;8.40;;
32639;SDS011;19049;52.524;11.468;2022-08-19T01:43:03;10.23;;;9.13;;
32639;SDS011;19049;52.524;11.468;2022-08-19T01:45:32;9.50;;;8.60;;
32639;SDS011;19049;52.524;11.468;2022-08-19T01:47:59;10.60;;;8.93;;
32639;SDS011;19049;52.524;11.468;2022-08-19T01:50:26;9.00;;;7.27;;
32639;SDS011;19049;52.524;11.468;2022-08-19T01:52:52;9.13;;;8.17;;
32639;SDS011;19049;52.524;11.468;2022-08-19T01:55:20;8.57;;;7.80;;
32639;SDS011;19049;52.524;11.468;2022-08-19T01:57:48;9.53;;;7.00;;
32639;SDS011;19049;52.524;11.468;2022-08-19T02:00:17;7.97;;;7.27;;
32639;SDS011;19049;52.524;11.468;2022-08-19T02:02:45;8.40;;;7.70;;
32639;SDS011;19049;52.524;11.468;2022-08-19T02:05:11;8.77;;;7.87;;
32639;SDS011;19049;52.524;11.468;2022-08-19T02:07:38;9.73;;;8.87;;
32639;SDS011;19049;52.524;11.468;2022-08-19T02:10:09;9.40;;;8.47;;
32639;SDS011;19049;52.524;11.468;2022-08-19T02:12:38;9.60;;;8.57;;
32639;SDS011;19049;52.524;11.468;2022-08-19T02:15:04;9.87;;;8.90;;
32639;SDS011;19049;52.524;11.468;2022-08-19T02:17:31;9.33;;;8.43;;
32639;SDS011;19049;52.524;11.468;2022-08-19T02:19:57;8.53;;;7.73;;
32639;SDS011;19049;52.524;11.468;2022-08-19T02:22:23;10.90;;;8.00;;
32639;SDS011;19049;52.524;11.468;2022-08-19T02:24:52;11.00;;;9.90;;
32639;SDS011;19049;52.524;11.468;2022-08-19T02:27:19;10.57;;;9.47;;
32639;SDS011;19049;52.524;11.468;2022-08-19T02:29:46;10.00;;;8.53;;
32639;SDS011;19049;52.524;11.468;2022-08-19T02:32:13;9.17;;;8.27;;
32639;SDS011;19049;52.524;11.468;2022-08-19T02:34:39;8.93;;;8.10;;
32639;SDS011;19049;52.524;11.468;2022-08-19T02:37:05;9.30;;;8.20;;
32639;SDS011;19049;52.524;11.468;2022-08-19T02:39:51;8.70;;;7.80;;
32639;SDS011;19049;52.524;11.468;2022-08-19T02:42:17;10.00;;;8.87;;
32639;SDS011;19049;52.524;11.468;2022-08-19T02:44:43;9.80;;;8.80;;
32639;SDS011;19049;52.524;11.468;2022-08-19T02:47:09;10.40;;;9.40;;
32639;SDS011;19049;52.524;11.468;2022-08-19T02:49:35;12.00;;;10.80;;
32639;SDS011;19049;52.524;11.468;2022-08-19T02:52:01;11.47;;;10.30;;
32639;SDS011;19049;52.524;11.468;2022-08-19T02:54:27;10.27;;;9.00;;
32639;SDS011;19049;52.524;11.468;2022-08-19T02:56:53;10.23;;;9.17;;
32639;SDS011;19049;52.524;11.468;2022-08-19T02:59:19;9.57;;;8.67;;
32639;SDS011;19049;52.524;11.468;2022-08-19T03:01:45;11.73;;;10.60;;
32639;SDS011;19049;52.524;11.468;2022-08-19T03:04:12;10.67;;;9.60;;
32639;SDS011;19049;52.524;11.468;2022-08-19T03:06:40;11.37;;;9.53;;
32639;SDS011;19049;52.524;11.468;2022-08-19T03:09:07;11.83;;;10.63;;
32639;SDS011;19049;52.524;11.468;2022-08-19T03:11:33;12.57;;;11.27;;
32639;SDS011;19049;52.524;11.468;2022-08-19T03:14:00;15.17;;;11.83;;
32639;SDS011;19049;52.524;11.468;2022-08-19T03:16:28;12.90;;;11.43;;
32639;SDS011;19049;52.524;11.468;2022-08-19T03:18:58;11.97;;;10.73;;
32639;SDS011;19049;52.524;11.468;2022-08-19T03:21:28;12.73;;;11.43;;
32639;SDS011;19049;52.524;11.468;2022-08-19T03:23:56;12.47;;;11.03;;
32639;SDS011;19049;52.524;11.468;2022-08-19T03:26:23;11.67;;;10.03;;
32639;SDS011;19049;52.524;11.468;2022-08-19T03:28:49;12.30;;;11.10;;
32639;SDS011;19049;52.524;11.468;2022-08-19T03:31:16;10.60;;;9.50;;
32639;SDS011;19049;52.524;11.468;2022-08-19T03:33:47;10.03;;;9.03;;
32639;SDS011;19049;52.524;11.468;2022-08-19T03:36:18;10.60;;;9.37;;
32639;SDS011;19049;52.524;11.468;2022-08-19T03:38:48;10.07;;;8.97;;
32639;SDS011;19049;52.524;11.468;2022-08-19T03:41:17;10.90;;;9.80;;
32639;SDS011;19049;52.524;11.468;2022-08-19T03:43:44;11.23;;;10.03;;
32639;SDS011;19049;52.524;11.468;2022-08-19T03:46:15;11.37;;;10.17;;
32639;SDS011;19049;52.524;11.468;2022-08-19T03:48:45;10.60;;;9.33;;
32639;SDS011;19049;52.524;11.468;2022-08-19T03:51:16;11.07;;;9.63;;
32639;SDS011;19049;52.524;11.468;2022-08-19T03:53:44;9.97;;;8.97;;
32639;SDS011;19049;52.524;11.468;2022-08-19T03:56:11;10.80;;;9.67;;
32639;SDS011;19049;52.524;11.468;2022-08-19T03:58:38;10.97;;;9.67;;
32639;SDS011;19049;52.524;11.468;2022-08-19T04:01:08;13.07;;;10.30;;
32639;SDS011;19049;52.524;11.468;2022-08-19T04:03:36;10.60;;;9.40;;
32639;SDS011;19049;52.524;11.468;2022-08-19T04:06:22;11.20;;;10.10;;
32639;SDS011;19049;52.524;11.468;2022-08-19T04:08:51;11.23;;;10.13;;
32639;SDS011;19049;52.524;11.468;2022-08-19T04:11:22;12.67;;;10.93;;
32639;SDS011;19049;52.524;11.468;2022-08-19T04:13:50;13.43;;;12.03;;
32639;SDS011;19049;52.524;11.468;2022-08-19T04:16:20;12.70;;;11.40;;
32639;SDS011;19049;52.524;11.468;2022-08-19T04:18:47;11.40;;;10.30;;
32639;SDS011;19049;52.524;11.468;2022-08-19T04:21:18;12.27;;;10.67;;
32639;SDS011;19049;52.524;11.468;2022-08-19T04:23:45;12.90;;;10.83;;
32639;SDS011;19049;52.524;11.468;2022-08-19T04:26:13;13.77;;;12.43;;
32639;SDS011;19049;52.524;11.468;2022-08-19T04:28:41;14.03;;;12.57;;
32639;SDS011;19049;52.524;11.468;2022-08-19T04:31:11;14.10;;;12.43;;
32639;SDS011;19049;52.524;11.468;2022-08-19T04:33:42;11.00;;;9.90;;
32639;SDS011;19049;52.524;11.468;2022-08-19T04:36:08;11.30;;;9.80;;
32639;SDS011;19049;52.524;11.468;2022-08-19T04:38:44;12.00;;;10.87;;
32639;SDS011;19049;52.524;11.468;2022-08-19T04:41:10;12.27;;;11.07;;
32639;SDS011;19049;52.524;11.468;2022-08-19T04:43:54;14.40;;;11.03;;
32639;SDS011;19049;52.524;11.468;2022-08-19T04:46:22;13.97;;;12.37;;
32639;SDS011;19049;52.524;11.468;2022-08-19T04:48:48;13.40;;;12.03;;
32639;SDS011;19049;52.524;11.468;2022-08-19T04:51:14;13.40;;;12.00;;
32639;SDS011;19049;52.524;11.468;2022-08-19T04:53:40;12.33;;;11.13;;
32639;SDS011;19049;52.524;11.468;2022-08-19T04:56:08;19.60;;;12.43;;
32639;SDS011;19049;52.524;11.468;2022-08-19T04:58:39;14.47;;;12.97;;
32639;SDS011;19049;52.524;11.468;2022-08-19T05:01:13;13.07;;;11.63;;
32639;SDS011;19049;52.524;11.468;2022-08-19T05:03:41;14.20;;;12.53;;
32639;SDS011;19049;52.524;11.468;2022-08-19T05:06:09;12.67;;;11.37;;
32639;SDS011;19049;52.524;11.468;2022-08-19T05:08:38;12.40;;;11.03;;
32639;SDS011;19049;52.524;11.468;2022-08-19T05:11:26;13.97;;;12.27;;
32639;SDS011;19049;52.524;11.468;2022-08-19T05:13:53;15.23;;;11.07;;
32639;SDS011;19049;52.524;11.468;2022-08-19T05:16:21;11.27;;;9.63;;
32639;SDS011;19049;52.524;11.468;2022-08-19T05:18:48;15.03;;;12.50;;
32639;SDS011;19049;52.524;11.468;2022-08-19T05:21:33;11.00;;;9.90;;
32639;SDS011;19049;52.524;11.468;2022-08-19T05:24:19;12.20;;;10.23;;
32639;SDS011;19049;52.524;11.468;2022-08-19T05:26:46;16.37;;;12.37;;
32639;SDS011;19049;52.524;11.468;2022-08-19T05:29:14;15.50;;;11.10;;
32639;SDS011;19049;52.524;11.468;2022-08-19T05:31:41;11.73;;;10.53;;
32639;SDS011;19049;52.524;11.468;2022-08-19T05:34:07;12.60;;;10.93;;
32639;SDS011;19049;52.524;11.468;2022-08-19T05:36:34;10.97;;;9.40;;
32639;SDS011;19049;52.524;11.468;2022-08-19T05:39:07;8.87;;;7.97;;
32639;SDS011;19049;52.524;11.468;2022-08-19T05:41:35;9.90;;;8.90;;
32639;SDS011;19049;52.524;11.468;2022-08-19T05:44:05;10.63;;;9.33;;
32639;SDS011;19049;52.524;11.468;2022-08-19T05:46:34;13.27;;;10.70;;
32639;SDS011;19049;52.524;11.468;2022-08-19T05:49:02;11.97;;;9.83;;
32639;SDS011;19049;52.524;11.468;2022-08-19T05:51:30;10.20;;;9.03;;
32639;SDS011;19049;52.524;11.468;2022-08-19T05:53:58;12.47;;;11.17;;
32639;SDS011;19049;52.524;11.468;2022-08-19T05:56:23;11.93;;;10.53;;
32639;SDS011;19049;52.524;11.468;2022-08-19T05:58:54;15.13;;;11.70;;
32639;SDS011;19049;52.524;11.468;2022-08-19T06:01:19;13.07;;;11.70;;
32639;SDS011;19049;52.524;11.468;2022-08-19T06:03:45;11.67;;;10.37;;
32639;SDS011;19049;52.524;11.468;2022-08-19T06:06:13;16.27;;;13.17;;
32639;SDS011;19049;52.524;11.468;2022-08-19T06:08:40;12.43;;;11.13;;
32639;SDS011;19049;52.524;11.468;2022-08-19T06:13:39;10.43;;;9.37;;
32639;SDS011;19049;52.524;11.468;2022-08-19T06:16:05;12.57;;;10.93;;
32639;SDS011;19049;52.524;11.468;2022-08-19T06:18:30;14.33;;;11.50;;
32639;SDS011;19049;52.524;11.468;2022-08-19T06:20:58;10.90;;;9.80;;
32639;SDS011;19049;52.524;11.468;2022-08-19T06:23:27;11.37;;;10.17;;
32639;SDS011;19049;52.524;11.468;2022-08-19T06:25:53;13.83;;;11.10;;
32639;SDS011;19049;52.524;11.468;2022-08-19T06:28:21;12.00;;;10.37;;
32639;SDS011;19049;52.524;11.468;2022-08-19T06:30:49;11.60;;;9.73;;
32639;SDS011;19049;52.524;11.468;2022-08-19T06:33:16;10.67;;;8.87;;
32639;SDS011;19049;52.524;11.468;2022-08-19T06:35:41;10.63;;;9.33;;
32639;SDS011;19049;52.524;11.468;2022-08-19T06:38:07;12.90;;;10.77;;
32639;SDS011;19049;52.524;11.468;2022-08-19T06:40:34;11.37;;;10.13;;
32639;SDS011;19049;52.524;11.468;2022-08-19T06:43:03;13.00;;;9.70;;
32639;SDS011;19049;52.524;11.468;2022-08-19T06:46:14;12.83;;;10.77;;
32639;SDS011;19049;52.524;11.468;2022-08-19T06:48:44;12.33;;;10.37;;
32639;SDS011;19049;52.524;11.468;2022-08-19T06:51:16;14.93;;;12.40;;
32639;SDS011;19049;52.524;11.468;2022-08-19T06:53:45;16.57;;;13.47;;
32639;SDS011;19049;52.524;11.468;2022-08-19T06:56:13;19.43;;;15.03;;
32639;SDS011;19049;52.524;11.468;2022-08-19T06:58:44;13.20;;;11.80;;
32639;SDS011;19049;52.524;11.468;2022-08-19T07:01:11;13.73;;;11.63;;
32639;SDS011;19049;52.524;11.468;2022-08-19T07:03:37;17.00;;;13.47;;
32639;SDS011;19049;52.524;11.468;2022-08-19T07:06:05;17.50;;;12.53;;
32639;SDS011;19049;52.524;11.468;2022-08-19T07:08:33;15.70;;;14.00;;
32639;SDS011;19049;52.524;11.468;2022-08-19T07:11:02;14.07;;;12.00;;
32639;SDS011;19049;52.524;11.468;2022-08-19T07:13:37;16.73;;;13.67;;
32639;SDS011;19049;52.524;11.468;2022-08-19T07:16:09;15.23;;;13.27;;
32639;SDS011;19049;52.524;11.468;2022-08-19T07:18:36;17.60;;;14.77;;
32639;SDS011;19049;52.524;11.468;2022-08-19T07:21:13;18.53;;;15.90;;
32639;SDS011;19049;52.524;11.468;2022-08-19T07:23:45;20.87;;;15.50;;
32639;SDS011;19049;52.524;11.468;2022-08-19T07:26:15;20.00;;;16.07;;
32639;SDS011;19049;52.524;11.468;2022-08-19T07:28:51;22.63;;;18.53;;
32639;SDS011;19049;52.524;11.468;2022-08-19T07:31:25;19.87;;;15.57;;
32639;SDS011;19049;52.524;11.468;2022-08-19T07:33:55;21.33;;;17.33;;
32639;SDS011;19049;52.524;11.468;2022-08-19T07:36:24;22.13;;;17.90;;
32639;SDS011;19049;52.524;11.468;2022-08-19T07:38:57;15.97;;;13.27;;
32639;SDS011;19049;52.524;11.468;2022-08-19T07:41:24;15.87;;;14.13;;
32639;SDS011;19049;52.524;11.468;2022-08-19T07:43:53;20.40;;;16.40;;
32639;SDS011;19049;52.524;11.468;2022-08-19T07:46:20;19.90;;;15.07;;
32639;SDS011;19049;52.524;11.468;2022-08-19T07:48:47;24.00;;;18.53;;
32639;SDS011;19049;52.524;11.468;2022-08-19T07:51:18;20.20;;;16.87;;
32639;SDS011;19049;52.524;11.468;2022-08-19T07:53:46;24.33;;;18.90;;
32639;SDS011;19049;52.524;11.468;2022-08-19T07:56:17;26.83;;;17.23;;
32639;SDS011;19049;52.524;11.468;2022-08-19T07:58:44;18.73;;;15.10;;
32639;SDS011;19049;52.524;11.468;2022-08-19T08:01:13;15.67;;;13.73;;
32639;SDS011;19049;52.524;11.468;2022-08-19T08:03:41;16.13;;;13.07;;
32639;SDS011;19049;52.524;11.468;2022-08-19T08:06:27;16.30;;;14.50;;
32639;SDS011;19049;52.524;11.468;2022-08-19T08:09:12;20.97;;;17.77;;
32639;SDS011;19049;52.524;11.468;2022-08-19T08:11:53;19.60;;;15.47;;
32639;SDS011;19049;52.524;11.468;2022-08-19T08:14:26;17.50;;;15.63;;
32639;SDS011;19049;52.524;11.468;2022-08-19T08:16:57;15.67;;;13.70;;
32639;SDS011;19049;52.524;11.468;2022-08-19T08:19:27;14.77;;;12.70;;
32639;SDS011;19049;52.524;11.468;2022-08-19T08:21:57;15.87;;;13.43;;
32639;SDS011;19049;52.524;11.468;2022-08-19T08:24:28;16.67;;;13.57;;
32639;SDS011;19049;52.524;11.468;2022-08-19T08:26:56;17.93;;;14.90;;
32639;SDS011;19049;52.524;11.468;2022-08-19T08:29:26;23.87;;;17.23;;
32639;SDS011;19049;52.524;11.468;2022-08-19T08:31:54;20.13;;;15.27;;
32639;SDS011;19049;52.524;11.468;2022-08-19T08:34:20;23.23;;;18.17;;
32639;SDS011;19049;52.524;11.468;2022-08-19T08:36:46;22.00;;;16.80;;
32639;SDS011;19049;52.524;11.468;2022-08-19T08:39:16;23.00;;;17.47;;
32639;SDS011;19049;52.524;11.468;2022-08-19T08:41:46;33.07;;;21.83;;
32639;SDS011;19049;52.524;11.468;2022-08-19T08:45:02;25.87;;;20.07;;
32639;SDS011;19049;52.524;11.468;2022-08-19T08:47:11;22.60;;;17.37;;
32639;SDS011;19049;52.524;11.468;2022-08-19T08:49:44;20.93;;;16.80;;
32639;SDS011;19049;52.524;11.468;2022-08-19T08:52:23;21.97;;;15.03;;
32639;SDS011;19049;52.524;11.468;2022-08-19T08:54:55;23.80;;;17.13;;
32639;SDS011;19049;52.524;11.468;2022-08-19T08:57:28;30.33;;;20.47;;
32639;SDS011;19049;52.524;11.468;2022-08-19T09:00:05;22.93;;;17.50;;
32639;SDS011;19049;52.524;11.468;2022-08-19T09:02:35;29.73;;;21.50;;
32639;SDS011;19049;52.524;11.468;2022-08-19T09:05:00;24.50;;;17.73;;
32639;SDS011;19049;52.524;11.468;2022-08-19T09:09:52;25.77;;;17.53;;
32639;SDS011;19049;52.524;11.468;2022-08-19T09:15:15;28.47;;;18.80;;
32639;SDS011;19049;52.524;11.468;2022-08-19T09:17:44;27.07;;;19.67;;
32639;SDS011;19049;52.524;11.468;2022-08-19T09:20:23;28.10;;;19.80;;
32639;SDS011;19049;52.524;11.468;2022-08-19T09:22:51;23.93;;;17.40;;
32639;SDS011;19049;52.524;11.468;2022-08-19T09:25:27;30.77;;;20.40;;
32639;SDS011;19049;52.524;11.468;2022-08-19T09:28:13;23.23;;;16.53;;
32639;SDS011;19049;52.524;11.468;2022-08-19T09:30:41;22.87;;;16.43;;
32639;SDS011;19049;52.524;11.468;2022-08-19T09:33:07;26.33;;;17.43;;
32639;SDS011;19049;52.524;11.468;2022-08-19T09:35:34;24.40;;;17.13;;
32639;SDS011;19049;52.524;11.468;2022-08-19T09:38:00;24.07;;;17.90;;
32639;SDS011;19049;52.524;11.468;2022-08-19T09:40:27;23.80;;;17.47;;
32639;SDS011;19049;52.524;11.468;2022-08-19T09:42:53;22.00;;;16.10;;
32639;SDS011;19049;52.524;11.468;2022-08-19T09:45:20;23.17;;;17.67;;
32639;SDS011;19049;52.524;11.468;2022-08-19T09:47:47;23.07;;;17.43;;
32639;SDS011;19049;52.524;11.468;2022-08-19T09:50:16;22.70;;;16.93;;
32639;SDS011;19049;52.524;11.468;2022-08-19T09:52:44;24.27;;;18.80;;
32639;SDS011;19049;52.524;11.468;2022-08-19T09:55:13;22.93;;;16.83;;
32639;SDS011;19049;52.524;11.468;2022-08-19T09:57:41;18.00;;;15.13;;
32639;SDS011;19049;52.524;11.468;2022-08-19T10:00:07;22.23;;;17.03;;
32639;SDS011;19049;52.524;11.468;2022-08-19T10:02:36;24.43;;;18.37;;
32639;SDS011;19049;52.524;11.468;2022-08-19T10:05:02;22.83;;;18.43;;
32639;SDS011;19049;52.524;11.468;2022-08-19T10:07:46;24.87;;;18.20;;
32639;SDS011;19049;52.524;11.468;2022-08-19T10:10:12;20.67;;;16.97;;
32639;SDS011;19049;52.524;11.468;2022-08-19T10:12:38;29.57;;;22.03;;
32639;SDS011;19049;52.524;11.468;2022-08-19T10:15:04;23.53;;;19.13;;
32639;SDS011;19049;52.524;11.468;2022-08-19T10:17:33;22.87;;;16.20;;
32639;SDS011;19049;52.524;11.468;2022-08-19T10:20:02;20.93;;;17.07;;
32639;SDS011;19049;52.524;11.468;2022-08-19T10:22:29;21.83;;;17.13;;
32639;SDS011;19049;52.524;11.468;2022-08-19T10:24:54;24.37;;;17.70;;
32639;SDS011;19049;52.524;11.468;2022-08-19T10:27:21;22.63;;;18.90;;
32639;SDS011;19049;52.524;11.468;2022-08-19T10:29:47;20.40;;;16.10;;
32639;SDS011;19049;52.524;11.468;2022-08-19T10:32:12;20.73;;;17.30;;
32639;SDS011;19049;52.524;11.468;2022-08-19T10:34:40;22.20;;;17.63;;
32639;SDS011;19049;52.524;11.468;2022-08-19T10:37:06;18.43;;;15.60;;
32639;SDS011;19049;52.524;11.468;2022-08-19T10:39:32;17.93;;;14.23;;
32639;SDS011;19049;52.524;11.468;2022-08-19T10:42:03;20.50;;;16.07;;
32639;SDS011;19049;52.524;11.468;2022-08-19T10:44:32;23.87;;;18.90;;
32639;SDS011;19049;52.524;11.468;2022-08-19T10:47:00;18.77;;;16.00;;
32639;SDS011;19049;52.524;11.468;2022-08-19T10:49:26;19.43;;;15.70;;
32639;SDS011;19049;52.524;11.468;2022-08-19T10:51:52;22.67;;;18.17;;
32639;SDS011;19049;52.524;11.468;2022-08-19T10:54:36;20.27;;;16.23;;
32639;SDS011;19049;52.524;11.468;2022-08-19T10:57:20;20.97;;;16.00;;
32639;SDS011;19049;52.524;11.468;2022-08-19T10:59:49;16.17;;;13.47;;
32639;SDS011;19049;52.524;11.468;2022-08-19T11:02:14;17.37;;;15.40;;
32639;SDS011;19049;52.524;11.468;2022-08-19T11:04:40;17.70;;;15.37;;
32639;SDS011;19049;52.524;11.468;2022-08-19T11:07:08;19.00;;;15.47;;
32639;SDS011;19049;52.524;11.468;2022-08-19T11:09:38;19.27;;;16.43;;
32639;SDS011;19049;52.524;11.468;2022-08-19T11:12:06;19.27;;;15.10;;
32639;SDS011;19049;52.524;11.468;2022-08-19T11:14:33;19.37;;;17.27;;
32639;SDS011;19049;52.524;11.468;2022-08-19T11:16:59;15.10;;;13.30;;
32639;SDS011;19049;52.524;11.468;2022-08-19T11:19:25;15.27;;;12.90;;
32639;SDS011;19049;52.524;11.468;2022-08-19T11:21:51;16.00;;;13.70;;
32639;SDS011;19049;52.524;11.468;2022-08-19T11:24:22;16.10;;;13.10;;
32639;SDS011;19049;52.524;11.468;2022-08-19T11:26:50;16.17;;;13.47;;
32639;SDS011;19049;52.524;11.468;2022-08-19T11:29:19;14.13;;;12.17;;
32639;SDS011;19049;52.524;11.468;2022-08-19T11:31:46;16.33;;;14.23;;
32639;SDS011;19049;52.524;11.468;2022-08-19T11:34:15;16.30;;;14.40;;
32639;SDS011;19049;52.524;11.468;2022-08-19T11:36:45;16.87;;;15.07;;
32639;SDS011;19049;52.524;11.468;2022-08-19T11:39:13;17.87;;;14.97;;
32639;SDS011;19049;52.524;11.468;2022-08-19T11:41:40;15.37;;;13.70;;
32639;SDS011;19049;52.524;11.468;2022-08-19T11:44:06;15.07;;;13.40;;
32639;SDS011;19049;52.524;11.468;2022-08-19T11:46:33;16.43;;;14.47;;
32639;SDS011;19049;52.524;11.468;2022-08-19T11:48:59;16.50;;;14.23;;
32639;SDS011;19049;52.524;11.468;2022-08-19T11:51:27;12.20;;;10.93;;
32639;SDS011;19049;52.524;11.468;2022-08-19T11:53:54;13.93;;;12.47;;
32639;SDS011;19049;52.524;11.468;2022-08-19T11:56:21;15.13;;;13.60;;
32639;SDS011;19049;52.524;11.468;2022-08-19T11:58:48;13.13;;;11.57;;
32639;SDS011;19049;52.524;11.468;2022-08-19T12:01:18;16.43;;;13.73;;
32639;SDS011;19049;52.524;11.468;2022-08-19T12:03:48;13.47;;;11.20;;
32639;SDS011;19049;52.524;11.468;2022-08-19T12:06:19;14.23;;;12.30;;
32639;SDS011;19049;52.524;11.468;2022-08-19T12:08:50;18.13;;;15.33;;
32639;SDS011;19049;52.524;11.468;2022-08-19T12:11:17;18.17;;;13.30;;
32639;SDS011;19049;52.524;11.468;2022-08-19T12:13:43;20.10;;;15.90;;
32639;SDS011;19049;52.524;11.468;2022-08-19T12:16:22;17.03;;;13.63;;
32639;SDS011;19049;52.524;11.468;2022-08-19T12:18:50;17.57;;;15.07;;
32639;SDS011;19049;52.524;11.468;2022-08-19T12:21:17;15.33;;;13.73;;
32639;SDS011;19049;52.524;11.468;2022-08-19T12:23:46;12.60;;;11.00;;
32639;SDS011;19049;52.524;11.468;2022-08-19T12:26:13;12.67;;;11.37;;
32639;SDS011;19049;52.524;11.468;2022-08-19T12:28:39;16.33;;;13.00;;
32639;SDS011;19049;52.524;11.468;2022-08-19T12:31:06;13.70;;;11.97;;
32639;SDS011;19049;52.524;11.468;2022-08-19T12:33:32;14.47;;;12.97;;
32639;SDS011;19049;52.524;11.468;2022-08-19T12:36:03;14.20;;;12.70;;
32639;SDS011;19049;52.524;11.468;2022-08-19T12:38:31;15.37;;;13.60;;
32639;SDS011;19049;52.524;11.468;2022-08-19T12:40:59;13.13;;;11.73;;
32639;SDS011;19049;52.524;11.468;2022-08-19T12:43:24;15.33;;;13.83;;
32639;SDS011;19049;52.524;11.468;2022-08-19T12:45:52;12.63;;;10.97;;
32639;SDS011;19049;52.524;11.468;2022-08-19T12:48:18;14.33;;;11.87;;
32639;SDS011;19049;52.524;11.468;2022-08-19T12:50:44;14.20;;;11.67;;
32639;SDS011;19049;52.524;11.468;2022-08-19T12:53:10;16.40;;;13.77;;
32639;SDS011;19049;52.524;11.468;2022-08-19T12:55:36;13.60;;;11.93;;
32639;SDS011;19049;52.524;11.468;2022-08-19T12:58:02;11.07;;;9.87;;
32639;SDS011;19049;52.524;11.468;2022-08-19T13:00:28;13.63;;;11.47;;
32639;SDS011;19049;52.524;11.468;2022-08-19T13:02:55;12.87;;;11.47;;
32639;SDS011;19049;52.524;11.468;2022-08-19T13:05:22;15.37;;;13.47;;
32639;SDS011;19049;52.524;11.468;2022-08-19T13:07:50;14.17;;;11.73;;
32639;SDS011;19049;52.524;11.468;2022-08-19T13:10:18;14.53;;;13.10;;
32639;SDS011;19049;52.524;11.468;2022-08-19T13:12:46;14.20;;;11.97;;
32639;SDS011;19049;52.524;11.468;2022-08-19T13:15:15;17.00;;;12.97;;
32639;SDS011;19049;52.524;11.468;2022-08-19T13:17:45;18.37;;;14.60;;
32639;SDS011;19049;52.524;11.468;2022-08-19T13:20:17;16.30;;;13.23;;
32639;SDS011;19049;52.524;11.468;2022-08-19T13:22:44;15.87;;;12.33;;
32639;SDS011;19049;52.524;11.468;2022-08-19T13:25:11;12.07;;;10.87;;
32639;SDS011;19049;52.524;11.468;2022-08-19T13:27:38;14.70;;;13.20;;
32639;SDS011;19049;52.524;11.468;2022-08-19T13:30:07;14.90;;;12.90;;
32639;SDS011;19049;52.524;11.468;2022-08-19T13:32:52;12.47;;;11.17;;
32639;SDS011;19049;52.524;11.468;2022-08-19T13:35:57;13.57;;;12.17;;
32639;SDS011;19049;52.524;11.468;2022-08-19T13:38:24;13.90;;;12.43;;
32639;SDS011;19049;52.524;11.468;2022-08-19T13:40:51;15.17;;;13.57;;
32639;SDS011;19049;52.524;11.468;2022-08-19T13:43:21;13.17;;;11.77;;
32639;SDS011;19049;52.524;11.468;2022-08-19T13:45:48;14.73;;;11.40;;
32639;SDS011;19049;52.524;11.468;2022-08-19T13:48:15;11.90;;;10.57;;
32639;SDS011;19049;52.524;11.468;2022-08-19T13:50:42;13.83;;;12.03;;
32639;SDS011;19049;52.524;11.468;2022-08-19T13:53:11;16.53;;;13.00;;
32639;SDS011;19049;52.524;11.468;2022-08-19T13:55:37;14.53;;;11.97;;
32639;SDS011;19049;52.524;11.468;2022-08-19T13:58:04;14.70;;;11.17;;
32639;SDS011;19049;52.524;11.468;2022-08-19T14:00:32;13.87;;;12.47;;
32639;SDS011;19049;52.524;11.468;2022-08-19T14:03:00;14.60;;;11.90;;
32639;SDS011;19049;52.524;11.468;2022-08-19T14:05:26;12.13;;;10.93;;
32639;SDS011;19049;52.524;11.468;2022-08-19T14:07:53;12.97;;;11.43;;
32639;SDS011;19049;52.524;11.468;2022-08-19T14:10:20;11.60;;;10.27;;
32639;SDS011;19049;52.524;11.468;2022-08-19T14:12:47;11.70;;;10.27;;
32639;SDS011;19049;52.524;11.468;2022-08-19T14:15:13;12.20;;;10.93;;
32639;SDS011;19049;52.524;11.468;2022-08-19T14:17:40;11.97;;;10.70;;
32639;SDS011;19049;52.524;11.468;2022-08-19T14:20:08;14.03;;;11.30;;
32639;SDS011;19049;52.524;11.468;2022-08-19T14:22:35;10.70;;;9.60;;
32639;SDS011;19049;52.524;11.468;2022-08-19T14:25:03;10.50;;;9.40;;
32639;SDS011;19049;52.524;11.468;2022-08-19T14:27:32;11.03;;;9.53;;
32639;SDS011;19049;52.524;11.468;2022-08-19T14:29:58;9.83;;;8.87;;
32639;SDS011;19049;52.524;11.468;2022-08-19T14:32:24;12.77;;;10.57;;